Time;durP1;ratioP1;P1;durP2;ratioP2;P2;SDS_P1;SDS_P2;PMS_P1;PMS_P2;Temp;Humidity;BMP_temperature;BMP_pressure;BME280_temperature;BME280_humidity;BME280_pressure;Samples;Min_cycle;Max_cycle;Signal;HPM_P1;HPM_P2
2022/07/13 00:00:16;;;;;;;0.90;0.90;;;;;;;19.59;52.67;97502.19;10071257;29;20057;-80
2022/07/13 00:05:39;;;;;;;0.95;0.85;;;;;;;19.59;52.61;97497.56;10102030;29;20056;-80
2022/07/13 00:10:58;;;;;;;0.98;0.80;;;;;;;19.59;52.61;97488.66;10075829;29;20049;-80
2022/07/13 00:16:17;;;;;;;0.70;0.70;;;;;;;19.58;52.69;97493.25;10092451;29;20045;-80
2022/07/13 00:21:37;;;;;;;0.70;0.70;;;;;;;19.58;52.64;97487.06;10086789;29;20493;-81
2022/07/13 00:26:56;;;;;;;0.82;0.82;;;;;;;19.58;52.57;97493.25;10101421;29;20511;-80
2022/07/13 00:32:15;;;;;;;1.00;0.90;;;;;;;19.58;52.57;97482.44;10101919;29;20244;-80
2022/07/13 00:37:35;;;;;;;1.42;0.90;;;;;;;19.58;52.54;97487.06;10101902;29;20048;-80
2022/07/13 00:42:57;;;;;;;1.30;0.80;;;;;;;19.57;52.33;97480.84;10100950;29;20045;-80
2022/07/13 00:48:16;;;;;;;1.48;0.90;;;;;;;19.56;52.52;97469.25;10086690;29;20409;-81
2022/07/13 00:53:38;;;;;;;0.70;0.70;;;;;;;19.56;52.49;97463.84;10068567;29;20041;-81
2022/07/13 00:58:59;;;;;;;0.65;0.65;;;;;;;19.58;52.65;97470.84;10090342;29;20049;-80
2022/07/13 01:04:20;;;;;;;1.08;0.93;;;;;;;19.58;52.50;97470.84;10087197;29;20048;-80
2022/07/13 01:09:41;;;;;;;0.70;0.70;;;;;;;19.56;52.41;97463.03;10074721;29;20405;-80
2022/07/13 01:15:01;;;;;;;0.68;0.65;;;;;;;19.58;52.38;97460.03;10085881;29;20056;-80
2022/07/13 01:20:21;;;;;;;1.50;1.00;;;;;;;19.55;52.39;97456.84;10097458;29;20052;-81
2022/07/13 01:25:41;;;;;;;1.00;0.90;;;;;;;19.56;52.39;97465.72;10098536;29;20109;-80
2022/07/13 01:31:00;;;;;;;0.70;0.70;;;;;;;19.55;52.51;97456.84;10089788;29;20507;-80
2022/07/13 01:36:20;;;;;;;0.80;0.80;;;;;;;19.55;52.48;97451.44;10098799;29;20041;-80
2022/07/13 01:41:42;;;;;;;0.80;0.80;;;;;;;19.55;52.36;97459.53;10093138;29;20457;-80
2022/07/13 01:47:11;;;;;;;0.77;0.65;;;;;;;19.55;52.48;97456.84;10093703;29;20093;-81
2022/07/13 01:52:30;;;;;;;0.77;0.70;;;;;;;19.55;52.39;97459.53;10118260;29;20041;-81
2022/07/13 01:57:56;;;;;;;0.70;0.70;;;;;;;19.54;52.54;97444.44;10103976;29;20552;-80
2022/07/13 02:03:15;;;;;;;1.75;0.80;;;;;;;19.54;52.43;97443.63;10094126;29;20520;-80
2022/07/13 02:08:36;;;;;;;0.90;0.70;;;;;;;19.54;52.55;97440.91;10090210;29;20092;-80
2022/07/13 02:13:57;;;;;;;0.80;0.70;;;;;;;19.54;52.60;97441.75;10078723;29;20101;-80
2022/07/13 02:19:16;;;;;;;0.60;0.60;;;;;;;19.53;52.57;97442.84;10080436;29;20051;-80
2022/07/13 02:24:36;;;;;;;2.15;0.80;;;;;;;19.53;52.55;97437.44;10078999;29;20097;-80
2022/07/13 02:29:55;;;;;;;0.63;0.63;;;;;;;19.54;52.39;97446.31;10086971;29;20390;-81
2022/07/13 02:35:14;;;;;;;0.95;0.70;;;;;;;19.53;52.42;97450.94;10092382;29;20104;-82
2022/07/13 02:40:34;;;;;;;0.70;0.70;;;;;;;19.53;52.65;97442.84;10106229;29;20476;-81
2022/07/13 02:45:53;;;;;;;0.73;0.73;;;;;;;19.53;52.42;97437.44;10094438;29;20064;-80
2022/07/13 02:51:13;;;;;;;0.70;0.70;;;;;;;19.53;52.40;97437.44;10078507;29;20052;-81
2022/07/13 02:56:32;;;;;;;1.00;0.80;;;;;;;19.53;52.41;97450.16;10091447;29;20045;-80
2022/07/13 03:01:52;;;;;;;0.75;0.70;;;;;;;19.52;52.43;97446.66;10071843;29;20064;-80
2022/07/13 03:07:11;;;;;;;0.98;0.80;;;;;;;19.53;52.41;97450.94;10118576;29;20040;-80
2022/07/13 03:12:32;;;;;;;0.77;0.77;;;;;;;19.53;52.39;97450.94;10064704;29;20594;-80
2022/07/13 03:17:52;;;;;;;0.75;0.70;;;;;;;19.53;52.00;97440.13;10075218;29;20386;-80
2022/07/13 03:23:12;;;;;;;0.80;0.80;;;;;;;19.52;52.46;97416.94;10101080;29;20052;-81
2022/07/13 03:28:31;;;;;;;0.70;0.70;;;;;;;19.51;52.25;97412.63;10067490;29;20045;-80
2022/07/13 03:33:53;;;;;;;0.93;0.75;;;;;;;19.51;52.42;97399.09;10086703;29;20052;-81
2022/07/13 03:39:13;;;;;;;0.70;0.70;;;;;;;19.51;52.31;97388.28;10102070;29;20137;-80
2022/07/13 03:44:34;;;;;;;0.80;0.80;;;;;;;19.52;52.34;97391.78;10084731;29;20116;-80
2022/07/13 03:49:54;;;;;;;0.70;0.70;;;;;;;19.51;52.29;97391.00;10089773;29;20496;-81
2022/07/13 03:55:14;;;;;;;0.60;0.60;;;;;;;19.51;52.29;97392.91;10075727;29;20045;-80
2022/07/13 04:00:36;;;;;;;0.70;0.70;;;;;;;19.51;52.32;97407.22;10101495;29;20071;-80
2022/07/13 04:05:55;;;;;;;0.80;0.80;;;;;;;19.51;52.36;97420.72;10088043;29;20037;-79
2022/07/13 04:11:15;;;;;;;2.25;0.70;;;;;;;19.51;52.41;97419.94;10084803;29;20041;-80
2022/07/13 04:16:36;;;;;;;1.30;0.90;;;;;;;19.51;52.41;97407.22;10087757;29;20780;-80
2022/07/13 04:21:58;;;;;;;0.90;0.70;;;;;;;19.51;52.69;97401.00;10098594;29;20052;-80
2022/07/13 04:27:19;;;;;;;0.82;0.82;;;;;;;19.51;52.81;97401.81;10103723;29;20047;-80
2022/07/13 04:32:38;;;;;;;0.80;0.80;;;;;;;19.50;52.88;97402.94;10074679;29;20068;-80
2022/07/13 04:37:58;;;;;;;0.70;0.70;;;;;;;19.50;52.95;97394.00;10089715;29;20108;-79
2022/07/13 04:43:18;;;;;;;1.75;0.80;;;;;;;19.50;53.01;97394.81;10096491;29;20049;-79
2022/07/13 04:48:38;;;;;;;0.68;0.68;;;;;;;19.51;52.92;97401.81;10089351;29;20493;-81
2022/07/13 04:53:58;;;;;;;0.93;0.90;;;;;;;19.46;50.29;97399.22;10076889;29;20064;-80
2022/07/13 04:59:19;;;;;;;0.90;0.80;;;;;;;19.40;51.15;97395.06;10095446;29;20089;-80
2022/07/13 05:04:39;;;;;;;5.53;1.27;;;;;;;19.44;52.04;97403.34;10071852;29;20049;-80
2022/07/13 05:09:59;;;;;;;16.85;3.33;;;;;;;19.46;52.25;97414.66;10113982;29;20049;-80
2022/07/13 05:15:18;;;;;;;15.65;3.80;;;;;;;19.47;52.49;97405.44;10101054;29;20389;-79
2022/07/13 05:20:39;;;;;;;9.57;3.20;;;;;;;19.47;52.65;97406.22;10104091;29;20049;-80
2022/07/13 05:25:59;;;;;;;6.70;2.53;;;;;;;19.47;52.90;97400.84;10108316;29;20044;-80
2022/07/13 05:31:19;;;;;;;6.65;2.50;;;;;;;19.49;52.94;97408.63;10090912;29;20059;-80
2022/07/13 05:36:39;;;;;;;7.25;2.55;;;;;;;19.47;53.11;97400.84;10104147;29;20048;-80
2022/07/13 05:41:59;;;;;;;5.97;2.40;;;;;;;19.50;53.00;97394.00;10078850;29;20060;-79
2022/07/13 05:47:19;;;;;;;4.32;2.10;;;;;;;19.49;53.12;97392.41;10098681;29;20049;-79
2022/07/13 05:52:39;;;;;;;3.38;1.63;;;;;;;19.47;52.89;97390.03;10106656;29;20071;-80
2022/07/13 05:57:59;;;;;;;3.47;1.83;;;;;;;19.47;52.77;97392.72;10080536;29;20045;-80
2022/07/13 06:03:18;;;;;;;4.05;1.90;;;;;;;19.47;53.25;97395.44;10101446;29;20100;-79
2022/07/13 06:08:38;;;;;;;4.43;1.70;;;;;;;19.49;53.13;97397.81;10081565;29;20041;-80
2022/07/13 06:13:58;;;;;;;2.25;1.40;;;;;;;19.49;53.07;97387.03;10097205;29;20068;-80
2022/07/13 06:19:17;;;;;;;4.70;1.90;;;;;;;19.48;53.19;97415.94;10104370;29;20460;-80
2022/07/13 06:24:36;;;;;;;2.42;1.25;;;;;;;19.49;53.05;97417.53;10093474;29;20041;-80
2022/07/13 06:29:56;;;;;;;2.58;1.40;;;;;;;19.50;53.19;97407.50;10081766;29;20077;-80
2022/07/13 06:35:15;;;;;;;2.78;1.40;;;;;;;19.50;53.38;97421.84;10107587;29;20496;-80
2022/07/13 06:40:35;;;;;;;2.90;1.70;;;;;;;19.50;53.36;97429.13;10096514;29;20052;-80
2022/07/13 06:45:55;;;;;;;1.42;1.33;;;;;;;19.50;53.34;97435.34;10102254;29;20045;-80
2022/07/13 06:51:14;;;;;;;2.95;1.20;;;;;;;19.50;53.31;97438.06;10074431;29;20453;-80
2022/07/13 06:56:33;;;;;;;3.78;1.30;;;;;;;19.49;53.65;97446.47;10105768;29;20040;-80
2022/07/13 07:01:53;;;;;;;2.88;1.08;;;;;;;19.47;53.86;97445.97;10080022;29;20056;-80
2022/07/13 07:07:12;;;;;;;1.98;1.30;;;;;;;19.44;54.07;97439.25;10082059;29;20435;-80
2022/07/13 07:12:33;;;;;;;2.72;1.20;;;;;;;19.47;54.10;97437.88;10089320;29;20049;-80
2022/07/13 07:17:52;;;;;;;3.30;1.40;;;;;;;19.49;54.40;97441.06;10104068;29;20120;-81
2022/07/13 07:23:12;;;;;;;3.35;1.30;;;;;;;19.49;54.08;97436.44;10068708;29;20449;-80
2022/07/13 07:28:32;;;;;;;1.20;1.10;;;;;;;19.50;53.96;97442.66;10089996;29;20049;-80
2022/07/13 07:33:52;;;;;;;1.85;0.95;;;;;;;19.51;53.42;97434.22;10097725;29;20053;-80
2022/07/13 07:39:13;;;;;;;1.00;0.90;;;;;;;19.50;53.30;97429.94;10093138;29;20048;-80
2022/07/13 07:44:32;;;;;;;1.65;0.90;;;;;;;19.52;52.85;97432.31;10087551;29;20214;-80
2022/07/13 07:49:52;;;;;;;1.10;0.85;;;;;;;19.52;52.69;97443.13;10096816;29;20068;-80
2022/07/13 07:55:12;;;;;;;2.90;1.05;;;;;;;19.53;52.43;97432.03;10091736;29;20133;-80
2022/07/13 08:00:32;;;;;;;2.05;1.17;;;;;;;19.53;52.51;97432.03;10107646;29;20048;-80
2022/07/13 08:05:52;;;;;;;0.70;0.70;;;;;;;19.54;52.61;97435.50;10086146;29;20104;-80
2022/07/13 08:11:17;;;;;;;1.92;0.98;;;;;;;19.54;52.57;97422.81;10099930;29;20049;-80
2022/07/13 08:16:36;;;;;;;2.00;0.80;;;;;;;19.53;53.10;97415.00;10089248;29;20052;-80
2022/07/13 08:24:55;;;;;;;3.55;1.02;;;;;;;19.52;53.38;97419.63;10525350;28;20374;-48
2022/07/13 08:42:36;;;;;;;0.95;0.82;;;;;;;19.56;53.24;97420.59;10463702;28;20106;-79
2022/07/13 08:47:57;;;;;;;1.30;1.10;;;;;;;19.56;52.87;97414.38;10474559;28;20064;-79
2022/07/13 08:53:17;;;;;;;5.22;1.20;;;;;;;19.56;53.13;97408.97;10487826;28;20056;-79
2022/07/13 08:58:37;;;;;;;2.33;1.17;;;;;;;19.58;53.39;97414.06;10502035;28;20052;-80
2022/07/13 09:03:56;;;;;;;1.90;0.90;;;;;;;19.58;53.37;97401.34;10473999;28;20049;-79
2022/07/13 09:09:35;;;;;;;1.85;1.10;;;;;;;19.59;53.43;97405.66;10501739;28;20056;-80
2022/07/13 09:15:00;;;;;;;2.88;1.00;;;;;;;19.60;53.42;97399.16;10487764;28;20056;-80
2022/07/13 09:20:22;;;;;;;1.23;0.93;;;;;;;19.59;53.61;97380.56;10501469;28;20049;-80
2022/07/13 09:25:41;;;;;;;2.45;1.02;;;;;;;19.60;53.80;97374.84;10481981;28;20052;-80
2022/07/13 09:31:00;;;;;;;1.45;1.10;;;;;;;19.63;53.36;97357.19;10502015;28;20063;-80
2022/07/13 09:36:23;;;;;;;2.70;1.10;;;;;;;19.62;53.67;97363.69;10459812;28;20491;-80
2022/07/13 09:41:43;;;;;;;2.28;1.20;;;;;;;19.61;53.80;97375.63;10460632;28;20055;-81
2022/07/13 09:47:04;;;;;;;3.25;1.50;;;;;;;19.60;53.73;97382.94;10472656;28;20052;-81
2022/07/13 09:52:30;;;;;;;2.70;1.42;;;;;;;19.61;53.93;97383.75;10458912;28;20053;-81
2022/07/13 09:57:52;;;;;;;2.20;1.20;;;;;;;19.61;53.80;97375.63;10455699;28;20068;-81
2022/07/13 10:03:12;;;;;;;1.75;1.20;;;;;;;19.60;53.85;97371.31;10472088;28;20049;-81
2022/07/13 10:08:33;;;;;;;2.50;1.25;;;;;;;19.62;53.73;97377.22;10485909;28;20491;-80
2022/07/13 10:13:53;;;;;;;2.28;1.20;;;;;;;19.61;53.48;97365.63;10471764;28;20059;-81
2022/07/13 10:19:14;;;;;;;3.75;1.50;;;;;;;19.62;53.41;97359.13;10470701;28;20045;-81
2022/07/13 10:24:34;;;;;;;3.08;1.38;;;;;;;19.62;53.49;97355.59;10475395;28;20087;-81
2022/07/13 10:30:04;;;;;;;2.20;1.20;;;;;;;19.62;53.46;97359.13;10485451;28;20483;-81
2022/07/13 10:35:24;;;;;;;2.33;1.20;;;;;;;19.61;53.37;97357.50;10456986;28;20048;-81
2022/07/13 10:40:44;;;;;;;1.23;1.00;;;;;;;19.63;52.99;97352.59;10460011;28;20055;-81
2022/07/13 10:46:04;;;;;;;1.00;1.00;;;;;;;19.63;53.16;97349.88;10469666;28;20060;-80
2022/07/13 10:51:23;;;;;;;0.80;0.80;;;;;;;19.65;52.85;97350.38;10456240;28;20064;-80
2022/07/13 10:57:13;;;;;;;1.25;0.80;;;;;;;19.69;51.78;97339.72;10470962;28;20052;-80
2022/07/13 11:02:50;;;;;;;1.58;1.08;;;;;;;19.70;51.75;97344.03;10456041;28;20053;-80
2022/07/13 11:08:16;;;;;;;3.20;1.13;;;;;;;19.70;51.95;97336.72;10443620;28;20053;-80
2022/07/13 11:13:36;;;;;;;1.95;1.30;;;;;;;19.75;51.25;97320.38;10455129;28;20045;-79
2022/07/13 11:18:56;;;;;;;1.30;1.20;;;;;;;19.82;51.08;97316.44;10469106;28;20045;-80
2022/07/13 11:30:03;;;;;;;8.55;3.67;;;;;;;19.86;52.81;97317.41;10475241;28;20051;-81
2022/07/13 11:35:22;;;;;;;4.70;1.83;;;;;;;19.86;52.76;97309.31;10468597;28;20056;-81
2022/07/13 11:40:43;;;;;;;5.10;1.20;;;;;;;19.86;52.21;97303.91;10432548;28;20045;-81
2022/07/13 11:46:04;;;;;;;1.90;1.30;;;;;;;19.86;52.40;97304.69;10454298;28;20045;-81
2022/07/13 11:51:24;;;;;;;1.98;1.27;;;;;;;19.79;52.18;97292.72;10468478;28;20052;-81
2022/07/13 11:56:56;;;;;;;4.47;1.55;;;;;;;19.79;51.01;97304.34;10481874;28;20401;-81
2022/07/13 12:02:15;;;;;;;4.30;1.10;;;;;;;19.77;51.31;97303.06;10441600;28;20047;-81
2022/07/13 12:07:35;;;;;;;1.52;1.23;;;;;;;19.75;51.70;97295.25;10440343;28;20049;-81
2022/07/13 12:47:46;;;;;;;;;;;;;;;;;;;;;
2022/07/13 12:53:53;;;;;;;1.20;1.05;;;;;;;19.73;54.10;97256.94;9832727;29;20133;-93
2022/07/13 13:34:38;;;;;;;1.30;0.90;;;;;;;19.76;54.48;97213.06;10013815;29;20057;-93
2022/07/13 13:48:20;;;;;;;;;;;;;;;;;;;;;
2022/07/13 13:54:18;;;;;;;;;;;;;;;;;;;;;
2022/07/13 14:01:12;;;;;;;1.25;1.00;;;;;;;19.76;54.75;97188.72;10262787;28;20061;-93
2022/07/13 14:28:42;;;;;;;0.80;0.80;;;;;;;19.81;54.61;97172.34;10461997;23;20508;-47
2022/07/13 14:34:01;;;;;;;1.73;1.00;;;;;;;19.82;54.67;97182.06;10416040;28;20050;-47
2022/07/13 14:39:21;;;;;;;0.75;0.70;;;;;;;19.84;54.55;97179.03;10416433;28;20053;-49
2022/07/13 14:44:40;;;;;;;0.80;0.80;;;;;;;19.83;54.50;97167.41;10416740;28;20053;-48
2022/07/13 14:49:59;;;;;;;1.55;0.80;;;;;;;19.83;54.58;97164.72;10416121;28;20504;-46
2022/07/13 14:55:19;;;;;;;1.00;0.90;;;;;;;19.85;54.61;97157.06;10419394;28;20053;-47
2022/07/13 15:00:39;;;;;;;1.10;1.00;;;;;;;19.86;54.60;97157.91;10416797;28;20076;-47
2022/07/13 15:05:59;;;;;;;1.98;0.90;;;;;;;19.85;54.64;97157.06;10416023;28;20057;-47
2022/07/13 15:11:18;;;;;;;2.00;1.00;;;;;;;19.85;54.63;97151.66;10416372;28;20116;-46
2022/07/13 15:16:38;;;;;;;0.80;0.80;;;;;;;19.86;54.76;97147.09;10416184;28;20053;-46
2022/07/13 15:21:57;;;;;;;0.80;0.80;;;;;;;19.88;54.71;97142.16;10416784;28;20049;-47
2022/07/13 15:27:16;;;;;;;0.90;0.80;;;;;;;19.91;54.82;97142.28;10416605;28;20115;-47
2022/07/13 15:32:36;;;;;;;0.70;0.70;;;;;;;19.93;54.79;97144.69;10413745;28;20060;-47
2022/07/13 15:37:56;;;;;;;3.60;0.90;;;;;;;19.93;54.83;97144.69;10428047;28;20076;-47
2022/07/13 15:43:16;;;;;;;1.20;0.77;;;;;;;19.92;54.93;97129.59;10436584;28;20069;-46
2022/07/13 15:48:35;;;;;;;3.22;0.90;;;;;;;19.92;54.96;97119.56;10415131;28;20065;-53
2022/07/13 15:53:54;;;;;;;1.70;0.80;;;;;;;19.94;55.16;97109.22;10404936;28;20053;-46
2022/07/13 15:59:14;;;;;;;2.00;0.90;;;;;;;19.97;55.33;97096.16;10399547;28;20084;-54
2022/07/13 16:04:33;;;;;;;1.92;0.82;;;;;;;19.97;55.23;97098.88;10425198;28;20053;-42
2022/07/13 16:09:53;;;;;;;3.50;0.73;;;;;;;19.94;55.65;97101.09;10415313;28;20519;-46
2022/07/13 16:15:13;;;;;;;2.50;0.90;;;;;;;19.95;55.75;97091.88;10427977;28;20053;-46
2022/07/13 16:20:32;;;;;;;0.77;0.75;;;;;;;19.95;55.83;97096.47;10426565;28;20054;-46
2022/07/13 16:25:51;;;;;;;1.45;0.90;;;;;;;19.95;55.18;97088.38;10412847;28;20073;-46
2022/07/13 16:31:11;;;;;;;3.13;0.73;;;;;;;19.96;55.31;97087.28;10402778;28;20061;-46
2022/07/13 16:36:31;;;;;;;1.48;0.80;;;;;;;19.98;55.42;97081.53;10413223;28;20112;-45
2022/07/13 16:41:51;;;;;;;1.08;0.80;;;;;;;19.99;55.59;97078.50;10410997;28;20049;-46
2022/07/13 16:47:10;;;;;;;1.95;0.82;;;;;;;20.01;55.87;97075.47;10413104;28;20090;-47
2022/07/13 16:52:30;;;;;;;1.13;0.80;;;;;;;20.01;55.80;97072.78;10421293;28;20049;-47
2022/07/13 16:57:50;;;;;;;1.90;0.90;;;;;;;20.04;55.91;97082.97;10420758;28;20061;-47
2022/07/13 17:03:10;;;;;;;2.88;0.80;;;;;;;20.05;56.34;97079.13;10433833;28;20443;-45
2022/07/13 17:08:29;;;;;;;2.67;0.80;;;;;;;20.06;56.70;97080.75;10430514;28;20096;-47
2022/07/13 17:13:49;;;;;;;2.22;0.80;;;;;;;20.05;56.72;97079.13;10420140;28;20046;-46
2022/07/13 17:19:11;;;;;;;0.80;0.77;;;;;;;20.05;56.91;97073.72;10434667;28;20056;-48
2022/07/13 17:24:31;;;;;;;2.50;0.90;;;;;;;20.06;57.02;97075.31;10419751;28;20409;-46
2022/07/13 17:29:51;;;;;;;1.50;0.77;;;;;;;20.04;56.82;97072.94;10420589;28;20080;-49
2022/07/13 17:35:10;;;;;;;1.77;1.10;;;;;;;20.03;56.73;97075.97;10419457;28;20069;-46
2022/07/13 17:40:30;;;;;;;1.02;0.88;;;;;;;20.03;56.87;97075.97;10425920;28;20056;-46
2022/07/13 17:45:50;;;;;;;1.08;0.95;;;;;;;20.04;56.78;97082.97;10431790;28;20127;-45
2022/07/13 17:51:10;;;;;;;3.38;0.90;;;;;;;20.04;57.09;97078.34;10432049;28;20505;-46
2022/07/13 17:56:29;;;;;;;2.92;0.70;;;;;;;20.05;57.04;97076.44;10418047;28;20053;-45
2022/07/13 18:01:48;;;;;;;2.22;0.90;;;;;;;20.04;57.02;97072.94;10406709;28;20053;-47
2022/07/13 18:07:07;;;;;;;2.05;0.80;;;;;;;20.04;56.97;97074.84;10419178;28;20101;-47
2022/07/13 18:12:27;;;;;;;2.47;0.88;;;;;;;20.03;56.89;97078.66;10432616;28;20058;-46
2022/07/13 18:17:47;;;;;;;2.92;1.40;;;;;;;20.03;56.90;97081.38;10431782;28;20049;-46
2022/07/13 18:28:44;;;;;;;2.17;1.23;;;;;;;20.03;57.64;97089.47;10413635;28;20073;-48
2022/07/13 18:34:04;;;;;;;1.92;1.10;;;;;;;20.02;57.37;97086.00;10443429;28;20053;-47
2022/07/13 18:39:24;;;;;;;2.25;1.10;;;;;;;20.02;57.31;97085.19;10446852;28;20041;-46
2022/07/13 18:44:43;;;;;;;1.33;1.00;;;;;;;20.03;57.77;97081.38;10416808;28;20111;-47
2022/07/13 18:50:03;;;;;;;2.05;1.00;;;;;;;20.03;58.05;97081.38;10411102;28;20062;-47
2022/07/13 18:55:22;;;;;;;3.53;1.10;;;;;;;20.03;58.53;97075.97;10415948;28;20104;-46
2022/07/13 19:00:42;;;;;;;3.03;1.25;;;;;;;20.05;58.58;97084.53;10415511;28;20061;-47
2022/07/13 19:06:02;;;;;;;2.67;1.30;;;;;;;20.04;58.69;97080.25;10415029;28;20127;-47
2022/07/13 19:11:23;;;;;;;1.10;1.00;;;;;;;20.03;58.78;97082.19;10417126;28;20111;-47
2022/07/13 19:16:42;;;;;;;1.00;1.00;;;;;;;20.04;58.74;97083.75;10429336;28;20037;-49
2022/07/13 19:22:01;;;;;;;1.20;1.10;;;;;;;20.03;58.60;97087.59;10416039;28;20128;-46
2022/07/13 19:27:21;;;;;;;1.65;1.10;;;;;;;20.03;58.27;97090.28;10419856;28;20068;-48
2022/07/13 19:32:41;;;;;;;1.75;0.98;;;;;;;20.02;58.08;97091.41;10403473;28;20065;-47
2022/07/13 19:38:00;;;;;;;2.10;1.20;;;;;;;20.03;57.92;97086.78;10421139;28;20071;-49
2022/07/13 19:43:20;;;;;;;3.60;1.42;;;;;;;20.02;57.73;97087.91;10450414;28;20045;-48
2022/07/13 19:48:40;;;;;;;1.92;1.55;;;;;;;20.02;57.84;97083.28;10427785;28;20061;-47
2022/07/13 19:54:03;;;;;;;6.45;1.60;;;;;;;20.03;57.68;97078.66;10432088;28;20407;-48
2022/07/13 19:59:23;;;;;;;3.30;1.45;;;;;;;20.02;57.63;97083.28;10452946;28;20053;-49
2022/07/13 20:04:42;;;;;;;3.30;1.80;;;;;;;20.02;57.62;97082.50;10427861;28;20104;-48
2022/07/13 20:10:03;;;;;;;3.83;1.77;;;;;;;20.02;57.73;97088.69;10426836;28;20415;-49
2022/07/13 20:15:23;;;;;;;1.80;1.45;;;;;;;20.03;57.92;97086.78;10439189;28;20064;-48
2022/07/13 20:20:43;;;;;;;3.88;1.63;;;;;;;20.05;57.94;97098.06;10433120;28;20057;-47
2022/07/13 20:26:03;;;;;;;1.60;1.23;;;;;;;20.04;58.32;97096.50;10439746;28;20107;-47
2022/07/13 20:31:22;;;;;;;2.28;1.60;;;;;;;20.05;58.67;97106.19;10424689;28;20054;-47
2022/07/13 20:36:42;;;;;;;5.32;1.73;;;;;;;20.05;58.59;97098.88;10413180;28;20049;-49
2022/07/13 20:42:02;;;;;;;4.60;1.88;;;;;;;20.06;59.16;97102.38;10407075;28;20050;-47
2022/07/13 20:47:21;;;;;;;5.72;1.80;;;;;;;20.08;59.33;97102.84;10415656;28;20100;-48
2022/07/13 20:52:41;;;;;;;3.13;1.60;;;;;;;20.07;58.84;97099.34;10412982;28;20053;-46
2022/07/13 20:58:00;;;;;;;5.18;1.67;;;;;;;20.07;58.98;97103.94;10426636;28;20046;-47
2022/07/13 21:03:20;;;;;;;4.47;1.90;;;;;;;20.07;58.90;97103.94;10414347;28;20045;-49
2022/07/13 21:08:39;;;;;;;11.13;2.83;;;;;;;20.06;58.94;97097.75;10426050;28;20045;-50
2022/07/13 21:13:59;;;;;;;5.80;1.83;;;;;;;20.07;58.84;97104.75;10411872;28;20057;-49
2022/07/13 21:19:18;;;;;;;6.82;1.73;;;;;;;20.06;58.79;97108.56;10424767;28;20512;-49
2022/07/13 21:24:38;;;;;;;3.97;1.70;;;;;;;20.06;58.73;97103.16;10439457;28;20049;-49
2022/07/13 21:29:57;;;;;;;5.38;1.75;;;;;;;20.06;58.67;97108.56;10421730;28;20050;-46
2022/07/13 21:35:17;;;;;;;3.85;1.75;;;;;;;20.06;58.61;97107.78;10419477;28;20061;-48
2022/07/13 21:40:36;;;;;;;5.50;2.08;;;;;;;20.05;58.51;97106.19;10400247;28;20107;-49
2022/07/13 21:45:56;;;;;;;4.25;1.73;;;;;;;20.05;58.45;97109.69;10419444;28;20061;-47
2022/07/13 21:51:15;;;;;;;4.60;1.90;;;;;;;20.07;58.45;97109.34;10419441;28;20057;-47
2022/07/13 21:56:34;;;;;;;4.40;1.92;;;;;;;20.05;58.42;97112.41;10419034;28;20061;-47
2022/07/13 22:01:53;;;;;;;5.28;1.85;;;;;;;20.05;58.44;97104.28;10419869;28;20176;-48
2022/07/13 22:07:19;;;;;;;2.72;1.50;;;;;;;20.06;58.50;97086.94;10418753;28;20115;-49
2022/07/13 22:13:16;;;;;;;4.63;1.95;;;;;;;20.06;58.56;97100.47;10418129;28;20054;-49
2022/07/13 22:19:13;;;;;;;3.25;1.50;;;;;;;20.07;58.54;97098.53;10411254;28;20061;-49
2022/07/13 22:25:10;;;;;;;2.47;1.67;;;;;;;20.07;58.55;97090.44;10417279;28;20050;-47
2022/07/13 22:31:07;;;;;;;3.13;1.55;;;;;;;20.05;58.73;97082.66;10416819;28;20061;-47
2022/07/13 22:37:04;;;;;;;3.08;1.65;;;;;;;20.05;58.74;97085.34;10422748;28;20061;-46
2022/07/13 22:43:01;;;;;;;3.13;1.50;;;;;;;20.07;58.72;97085.00;10439231;28;20500;-46
2022/07/13 22:48:58;;;;;;;3.83;1.45;;;;;;;20.07;58.74;97082.31;10458470;28;20049;-46
2022/07/13 22:54:55;;;;;;;4.00;1.38;;;;;;;20.07;58.73;97082.31;10413539;28;20064;-47
2022/07/13 23:00:52;;;;;;;3.97;1.70;;;;;;;20.06;58.67;97064.50;10417183;28;20061;-46
2022/07/13 23:06:49;;;;;;;3.10;1.60;;;;;;;20.06;58.63;97070.72;10415625;28;20064;-48
2022/07/13 23:12:47;;;;;;;3.65;1.50;;;;;;;20.06;58.67;97070.72;10422645;28;20057;-47
2022/07/13 23:18:43;;;;;;;2.75;1.48;;;;;;;20.07;58.72;97068.78;10404473;28;20057;-49
2022/07/13 23:24:40;;;;;;;2.30;1.30;;;;;;;20.06;58.60;97065.28;10413301;28;20057;-47
2022/07/13 23:30:09;;;;;;;2.97;1.50;;;;;;;20.06;58.52;97053.69;10412240;28;20079;-46
2022/07/13 23:35:29;;;;;;;;;;;;;;;20.06;58.52;97059.09;10413543;28;20072;-49
2022/07/13 23:40:48;;;;;;;2.65;1.52;;;;;;;20.06;58.46;97064.50;10414634;28;19929;-47
2022/07/13 23:46:07;;;;;;;1.85;1.45;;;;;;;20.06;58.45;97059.88;10414602;28;20056;-47
2022/07/13 23:51:28;;;;;;;2.17;1.40;;;;;;;20.06;58.38;97064.50;10424382;28;20107;-48
2022/07/13 23:56:48;;;;;;;1.85;1.33;;;;;;;20.05;58.54;97068.31;10414907;28;20068;-49
